createdAt,value
2023-04-25T00:01:33.109Z,7.35
2023-04-25T00:04:04.737Z,7.33
2023-04-25T00:06:37.267Z,7.30
2023-04-25T00:09:11.045Z,7.27
2023-04-25T00:11:42.426Z,7.17
2023-04-25T00:14:13.511Z,7.11
2023-04-25T00:16:45.281Z,7.06
2023-04-25T00:19:16.753Z,7.02
2023-04-25T00:21:47.977Z,7.01
2023-04-25T00:24:18.947Z,6.98
2023-04-25T00:26:48.633Z,6.95
2023-04-25T00:29:19.907Z,6.88
2023-04-25T00:31:51.379Z,6.86
2023-04-25T00:34:22.709Z,6.83
2023-04-25T00:36:53.908Z,6.81
2023-04-25T00:39:24.986Z,6.79
2023-04-25T00:41:57.334Z,6.75
2023-04-25T00:44:30.511Z,6.70
2023-04-25T00:47:02.519Z,6.68
2023-04-25T00:49:33.685Z,6.67
2023-04-25T00:52:03.153Z,6.66
2023-04-25T00:54:34.711Z,6.65
2023-04-25T00:57:06.273Z,6.63
2023-04-25T00:59:38.371Z,6.59
2023-04-25T01:02:10.405Z,6.56
2023-04-25T01:04:41.949Z,6.55
2023-04-25T01:07:13.639Z,6.54
2023-04-25T01:09:45.106Z,6.52
2023-04-25T01:12:16.819Z,6.52
2023-04-25T01:14:48.020Z,6.51
2023-04-25T01:17:19.755Z,6.50
2023-04-25T01:19:51.718Z,6.50
2023-04-25T01:22:23.019Z,6.49
2023-04-25T01:24:54.354Z,6.48
2023-04-25T01:27:26.292Z,6.48
2023-04-25T01:29:58.262Z,6.47
2023-04-25T01:32:29.600Z,6.48
2023-04-25T01:35:00.558Z,6.49
2023-04-25T01:37:33.819Z,6.50
2023-04-25T01:40:06.377Z,6.51
2023-04-25T01:42:39.409Z,6.52
2023-04-25T01:45:12.797Z,6.52
2023-04-25T01:47:44.907Z,6.51
2023-04-25T01:50:16.427Z,6.44
2023-04-25T01:52:47.777Z,6.35
2023-04-25T01:55:18.909Z,6.27
2023-04-25T01:57:50.133Z,6.24
2023-04-25T02:00:20.113Z,6.23
2023-04-25T02:02:51.908Z,6.23
2023-04-25T02:05:23.124Z,6.25
2023-04-25T02:07:54.497Z,6.29
2023-04-25T02:10:25.749Z,6.32
2023-04-25T02:12:55.083Z,6.33
2023-04-25T02:15:26.861Z,6.29
2023-04-25T02:17:59.053Z,6.25
2023-04-25T02:20:31.494Z,6.25
2023-04-25T02:23:02.573Z,6.27
2023-04-25T02:25:32.037Z,6.29
2023-04-25T02:28:03.636Z,6.29
2023-04-25T02:30:34.875Z,6.30
2023-04-25T02:33:04.379Z,6.31
2023-04-25T02:35:35.969Z,6.29
2023-04-25T02:38:07.002Z,6.30
2023-04-25T02:40:39.411Z,6.31
2023-04-25T02:43:10.482Z,6.32
2023-04-25T02:45:41.427Z,6.35
2023-04-25T02:48:11.016Z,6.35
2023-04-25T02:50:41.885Z,6.33
2023-04-25T02:53:12.908Z,6.34
2023-04-25T02:55:43.930Z,6.34
2023-04-25T02:58:13.591Z,6.36
2023-04-25T03:00:44.632Z,6.35
2023-04-25T03:03:14.358Z,6.36
2023-04-25T03:05:46.159Z,6.36
2023-04-25T03:08:17.015Z,6.35
2023-04-25T03:10:46.582Z,6.35
2023-04-25T03:13:18.489Z,6.32
2023-04-25T03:15:47.956Z,6.32
2023-04-25T03:18:18.934Z,6.33
2023-04-25T03:20:49.950Z,6.37
2023-04-25T03:23:20.962Z,6.38
2023-04-25T03:25:51.978Z,6.39
2023-04-25T03:28:23.071Z,6.39
2023-04-25T03:30:55.279Z,6.36
2023-04-25T03:33:26.326Z,6.34
2023-04-25T03:35:57.668Z,6.30
2023-04-25T03:38:29.145Z,6.28
2023-04-25T03:41:00.169Z,6.22
2023-04-25T03:43:31.517Z,6.17
2023-04-25T03:46:02.927Z,6.14
2023-04-25T03:48:34.538Z,6.07
2023-04-25T03:51:05.765Z,6.00
2023-04-25T03:53:35.165Z,5.95
2023-04-25T03:56:06.731Z,5.85
2023-04-25T03:58:37.985Z,5.76
2023-04-25T04:01:09.418Z,5.70
2023-04-25T04:03:40.648Z,5.63
2023-04-25T04:06:12.037Z,5.55
2023-04-25T04:08:41.498Z,5.50
2023-04-25T04:11:12.430Z,5.42
2023-04-25T04:13:42.083Z,5.37
2023-04-25T04:16:13.527Z,5.30
2023-04-25T04:18:44.741Z,5.24
2023-04-25T04:21:16.009Z,5.18
2023-04-25T04:23:47.679Z,5.13
2023-04-25T04:26:19.680Z,5.07
2023-04-25T04:28:51.439Z,5.01
2023-04-25T04:31:22.586Z,4.98
2023-04-25T04:33:52.568Z,4.96
2023-04-25T04:36:24.188Z,4.92
2023-04-25T04:38:57.458Z,4.90
2023-04-25T04:41:28.332Z,4.89
2023-04-25T04:44:02.252Z,4.86
2023-04-25T04:46:39.056Z,4.83
2023-04-25T04:49:10.561Z,4.82
2023-04-25T04:51:42.295Z,4.81
2023-04-25T04:54:13.611Z,4.80
2023-04-25T04:56:44.902Z,4.78
2023-04-25T04:59:14.248Z,4.78
2023-04-25T05:01:45.157Z,4.72
2023-04-25T05:04:16.361Z,4.69
2023-04-25T05:06:49.240Z,4.68
2023-04-25T05:09:20.691Z,4.68
2023-04-25T05:11:51.788Z,4.70
2023-04-25T05:14:22.875Z,4.72
2023-04-25T05:16:53.882Z,4.78
2023-04-25T05:19:25.673Z,4.83
2023-04-25T05:21:56.675Z,4.89
2023-04-25T05:24:27.649Z,4.95
2023-04-25T05:26:57.087Z,5.02
2023-04-25T05:29:28.278Z,5.08
2023-04-25T05:31:59.614Z,5.18
2023-04-25T05:34:30.610Z,5.29
2023-04-25T05:37:01.856Z,5.39
2023-04-25T05:39:33.113Z,5.51
2023-04-25T05:42:04.902Z,5.63
2023-04-25T05:44:35.876Z,5.77
2023-04-25T05:47:06.952Z,5.94
2023-04-25T05:49:38.595Z,6.11
2023-04-25T05:52:09.620Z,6.27
2023-04-25T05:54:38.958Z,6.43
2023-04-25T05:57:10.191Z,6.59
2023-04-25T05:59:41.391Z,6.77
2023-04-25T06:02:10.758Z,6.92
2023-04-25T06:04:42.622Z,7.03
2023-04-25T06:07:12.069Z,7.20
2023-04-25T06:09:43.085Z,7.33
2023-04-25T06:12:13.968Z,7.49
2023-04-25T06:14:45.272Z,7.62
2023-04-25T06:17:16.290Z,7.76
2023-04-25T06:19:45.718Z,7.90
2023-04-25T06:22:16.688Z,8.02
2023-04-25T06:24:46.899Z,8.10
2023-04-25T06:27:18.816Z,8.17
2023-04-25T06:29:50.712Z,8.28
2023-04-25T06:32:21.763Z,8.41
2023-04-25T06:34:52.865Z,8.57
2023-04-25T06:37:22.331Z,8.71
2023-04-25T06:39:53.274Z,8.76
2023-04-25T06:42:22.643Z,8.83
2023-04-25T06:44:53.794Z,8.89
2023-04-25T06:47:24.853Z,8.97
2023-04-25T06:49:55.791Z,9.03
2023-04-25T06:52:25.123Z,9.08
2023-04-25T06:54:54.803Z,9.10
2023-04-25T06:57:24.602Z,9.11
2023-04-25T06:59:55.645Z,9.11
2023-04-25T07:02:26.947Z,9.16
2023-04-25T07:05:00.870Z,9.23
2023-04-25T07:07:31.776Z,9.31
2023-04-25T07:10:02.758Z,9.34
2023-04-25T07:12:34.465Z,9.39
2023-04-25T07:15:07.254Z,9.41
2023-04-25T07:17:38.340Z,9.41
2023-04-25T07:20:11.224Z,9.40
2023-04-25T07:22:42.219Z,9.39
2023-04-25T07:25:11.741Z,9.35
2023-04-25T07:27:43.041Z,9.32
2023-04-25T07:30:15.240Z,9.34
2023-04-25T07:32:46.649Z,9.37
2023-04-25T07:35:18.404Z,9.44
2023-04-25T07:37:49.368Z,9.49
2023-04-25T07:40:18.696Z,9.58
2023-04-25T07:42:49.916Z,9.60
2023-04-25T07:45:21.012Z,9.62
2023-04-25T07:47:53.364Z,9.65
2023-04-25T07:50:24.717Z,9.70
2023-04-25T07:52:55.817Z,9.73
2023-04-25T07:55:27.289Z,9.80
2023-04-25T07:57:58.354Z,9.87
2023-04-25T08:00:29.527Z,9.98
2023-04-25T08:03:00.866Z,10.11
2023-04-25T08:05:32.196Z,10.22
2023-04-25T08:08:03.436Z,10.27
2023-04-25T08:10:34.467Z,10.31
2023-04-25T08:13:03.732Z,10.33
2023-04-25T08:15:34.881Z,10.28
2023-04-25T08:18:05.834Z,10.30
2023-04-25T08:20:36.813Z,10.28
2023-04-25T08:23:08.002Z,10.29
2023-04-25T08:25:38.990Z,10.30
2023-04-25T08:28:10.496Z,10.36
2023-04-25T08:30:41.634Z,10.43
2023-04-25T08:33:12.865Z,10.47
2023-04-25T08:35:43.902Z,10.47
2023-04-25T08:38:15.395Z,10.53
2023-04-25T08:40:51.413Z,10.57
2023-04-25T08:43:23.245Z,10.64
2023-04-25T08:46:00.841Z,10.67
2023-04-25T08:48:34.666Z,10.65
2023-04-25T08:53:46.283Z,10.49
2023-04-25T08:56:21.369Z,10.40
2023-04-25T08:58:53.407Z,10.26
2023-04-25T09:01:24.833Z,10.12
2023-04-25T09:03:56.292Z,10.01
2023-04-25T09:06:28.747Z,9.97
2023-04-25T09:09:07.130Z,9.99
2023-04-25T09:11:39.087Z,10.03
2023-04-25T09:14:17.045Z,10.13
2023-04-25T09:17:06.122Z,10.21
2023-04-25T09:19:42.036Z,10.30
2023-04-25T09:22:13.646Z,10.40
2023-04-25T09:24:47.140Z,10.48
2023-04-25T09:27:24.141Z,10.50
2023-04-25T09:30:01.667Z,10.48
2023-04-25T09:32:33.287Z,10.48
2023-04-25T09:35:05.699Z,10.49
2023-04-25T09:37:39.142Z,10.46
2023-04-25T09:40:11.043Z,10.44
2023-04-25T09:42:45.066Z,10.45
2023-04-25T09:45:17.597Z,10.48
2023-04-25T09:47:48.583Z,10.53
2023-04-25T09:50:21.266Z,10.58
2023-04-25T09:53:06.985Z,10.60
2023-04-25T09:55:38.515Z,10.59
2023-04-25T09:58:11.535Z,10.62
2023-04-25T10:00:43.419Z,10.65
2023-04-25T10:03:15.046Z,10.67
2023-04-25T10:05:47.600Z,10.74
2023-04-25T10:08:19.376Z,10.88
2023-04-25T10:10:51.950Z,11.03
2023-04-25T10:13:23.053Z,11.17
2023-04-25T10:15:56.516Z,11.30
2023-04-25T10:18:28.916Z,11.52
2023-04-25T10:21:02.043Z,11.73
2023-04-25T10:23:35.440Z,11.87
2023-04-25T10:26:06.899Z,11.96
2023-04-25T10:28:59.560Z,12.08
2023-04-25T10:31:31.876Z,12.22
2023-04-25T10:34:03.644Z,12.31
2023-04-25T10:36:38.492Z,12.23
2023-04-25T10:39:10.407Z,12.10
2023-04-25T10:41:55.137Z,12.03
2023-04-25T10:44:28.329Z,11.94
2023-04-25T10:47:01.191Z,11.80
2023-04-25T10:49:36.504Z,11.60
2023-04-25T10:52:18.986Z,11.46
2023-04-25T10:54:56.112Z,11.29
2023-04-25T10:57:32.498Z,11.20
2023-04-25T11:00:07.705Z,11.12
2023-04-25T11:02:46.422Z,11.14
2023-04-25T11:05:25.186Z,11.28
2023-04-25T11:10:34.169Z,11.57
2023-04-25T11:13:05.603Z,11.70
2023-04-25T11:15:36.690Z,11.87
2023-04-25T11:18:11.279Z,12.06
2023-04-25T11:20:45.682Z,12.21
2023-04-25T11:23:17.832Z,12.33
2023-04-25T11:25:48.842Z,12.47
2023-04-25T11:28:25.424Z,12.56
2023-04-25T11:30:58.197Z,12.62
2023-04-25T11:33:29.604Z,12.62
2023-04-25T11:36:00.842Z,12.54
2023-04-25T11:38:32.154Z,12.51
2023-04-25T11:41:03.328Z,12.44
2023-04-25T11:43:35.211Z,12.43
2023-04-25T11:46:10.320Z,12.48
2023-04-25T11:48:45.692Z,12.49
2023-04-25T11:51:16.864Z,12.48
2023-04-25T11:53:51.227Z,12.44
2023-04-25T11:56:22.326Z,12.31
2023-04-25T11:59:01.895Z,12.16
2023-04-25T12:01:35.995Z,12.02
2023-04-25T12:04:18.807Z,11.92
2023-04-25T12:06:51.960Z,11.93
2023-04-25T12:09:29.765Z,11.95
2023-04-25T12:12:03.948Z,11.99
2023-04-25T12:14:37.648Z,12.03
2023-04-25T12:17:09.499Z,12.05
2023-04-25T12:19:42.364Z,11.98
2023-04-25T12:22:26.881Z,11.90
2023-04-25T12:24:59.573Z,11.84
2023-04-25T12:27:30.968Z,11.80
2023-04-25T12:30:02.907Z,11.74
2023-04-25T12:32:33.943Z,11.70
2023-04-25T12:35:05.862Z,11.68
2023-04-25T12:37:37.179Z,11.69
2023-04-25T12:40:11.283Z,11.68
2023-04-25T12:42:42.346Z,11.73
2023-04-25T12:45:13.626Z,11.76
2023-04-25T12:47:44.889Z,11.77
2023-04-25T12:50:16.317Z,11.85
2023-04-25T12:52:47.315Z,11.91
2023-04-25T12:55:18.624Z,11.95
2023-04-25T12:57:49.678Z,11.99
2023-04-25T13:00:21.834Z,12.01
2023-04-25T13:02:52.923Z,12.04
2023-04-25T13:05:24.058Z,12.13
2023-04-25T13:07:55.406Z,12.20
2023-04-25T13:10:26.847Z,12.25
2023-04-25T13:12:57.794Z,12.22
2023-04-25T13:15:28.830Z,12.21
2023-04-25T13:17:59.934Z,12.30
2023-04-25T13:20:30.972Z,12.45
2023-04-25T13:23:02.925Z,12.71
2023-04-25T13:25:34.274Z,12.90
2023-04-25T13:28:05.774Z,13.02
2023-04-25T13:30:38.042Z,13.11
2023-04-25T13:33:09.015Z,13.22
2023-04-25T13:35:41.258Z,13.23
2023-04-25T13:38:12.167Z,13.26
2023-04-25T13:40:43.169Z,13.25
2023-04-25T13:43:14.205Z,13.16
2023-04-25T13:45:45.299Z,13.05
2023-04-25T13:48:16.414Z,12.92
2023-04-25T13:50:47.994Z,12.90
2023-04-25T13:53:18.918Z,12.88
2023-04-25T13:55:49.794Z,12.79
2023-04-25T13:58:21.860Z,12.72
2023-04-25T14:00:54.913Z,12.71
2023-04-25T14:03:26.157Z,12.77
2023-04-25T14:05:57.298Z,12.78
2023-04-25T14:08:28.532Z,12.75
2023-04-25T14:10:59.825Z,12.69
2023-04-25T14:13:30.891Z,12.60
2023-04-25T14:16:01.959Z,12.47
2023-04-25T14:18:33.100Z,12.32
2023-04-25T14:21:04.157Z,12.15
2023-04-25T14:23:34.958Z,12.09
2023-04-25T14:26:07.366Z,12.12
2023-04-25T14:28:38.360Z,12.15
2023-04-25T14:31:09.745Z,12.02
2023-04-25T14:33:43.903Z,11.98
2023-04-25T14:36:15.354Z,12.02
2023-04-25T14:38:46.771Z,12.24
2023-04-25T14:41:17.914Z,12.16
2023-04-25T14:43:49.141Z,12.03
2023-04-25T14:46:20.614Z,11.94
2023-04-25T14:48:51.739Z,11.83
2023-04-25T14:51:37.169Z,11.69
2023-04-25T14:54:42.992Z,11.46
2023-04-25T14:58:09.485Z,11.18
2023-04-25T15:01:28.508Z,10.88
2023-04-25T15:04:29.638Z,10.76
2023-04-25T15:07:05.084Z,10.72
2023-04-25T15:09:36.104Z,10.70
2023-04-25T15:12:16.461Z,10.70
2023-04-25T15:14:48.284Z,10.66
2023-04-25T15:17:21.070Z,10.62
2023-04-25T15:20:42.565Z,10.59
2023-04-25T15:23:35.731Z,10.64
2023-04-25T15:26:13.079Z,10.76
2023-04-25T15:28:49.598Z,11.06
2023-04-25T15:31:28.840Z,11.08
2023-04-25T15:34:41.557Z,10.94
2023-04-25T15:37:29.929Z,10.81
2023-04-25T15:40:27.360Z,10.80
2023-04-25T15:42:58.552Z,10.66
2023-04-25T15:45:42.588Z,10.60
2023-04-25T15:48:13.819Z,10.60
2023-04-25T15:50:45.803Z,10.58
2023-04-25T15:53:18.638Z,10.43
2023-04-25T15:55:54.413Z,10.24
2023-04-25T15:58:28.626Z,10.06
2023-04-25T16:01:01.981Z,9.91
2023-04-25T16:03:36.372Z,9.81
2023-04-25T16:06:08.603Z,9.74
2023-04-25T16:08:40.198Z,9.67
2023-04-25T16:11:14.488Z,9.61
2023-04-25T16:14:43.877Z,9.59
2023-04-25T16:17:14.949Z,9.51
2023-04-25T16:19:45.913Z,9.45
2023-04-25T16:22:17.260Z,9.43
2023-04-25T16:24:48.409Z,9.40
2023-04-25T16:27:19.832Z,9.37
2023-04-25T16:29:51.686Z,9.37
2023-04-25T16:32:22.961Z,9.39
2023-04-25T16:34:55.102Z,9.39
2023-04-25T16:37:27.976Z,9.35
2023-04-25T16:39:59.068Z,9.27
2023-04-25T16:42:30.316Z,9.16
2023-04-25T16:45:01.677Z,9.09
2023-04-25T16:47:34.629Z,9.04
2023-04-25T16:50:06.936Z,8.98
2023-04-25T16:52:38.118Z,8.94
2023-04-25T16:55:10.974Z,8.92
2023-04-25T16:57:41.986Z,8.93
2023-04-25T17:00:13.696Z,8.88
2023-04-25T17:02:44.957Z,8.83
2023-04-25T17:05:16.234Z,8.79
2023-04-25T17:07:47.355Z,8.75
2023-04-25T17:10:16.749Z,8.70
2023-04-25T17:12:47.833Z,8.66
2023-04-25T17:15:20.807Z,8.82
2023-04-25T17:17:52.094Z,9.01
2023-04-25T17:20:23.436Z,9.24
2023-04-25T17:22:55.068Z,9.39
2023-04-25T17:25:27.047Z,9.36
2023-04-25T17:27:57.923Z,9.27
2023-04-25T17:30:29.163Z,9.14
2023-04-25T17:33:00.297Z,9.05
2023-04-25T17:35:31.667Z,8.95
2023-04-25T17:38:02.916Z,8.81
2023-04-25T17:40:34.105Z,8.70
2023-04-25T17:43:05.177Z,8.63
2023-04-25T17:45:36.376Z,8.53
2023-04-25T17:48:08.654Z,8.44
2023-04-25T17:50:40.162Z,8.32
2023-04-25T17:53:11.463Z,8.21
2023-04-25T17:55:43.923Z,8.10
2023-04-25T17:58:15.183Z,8.00
2023-04-25T18:00:44.508Z,7.91
2023-04-25T18:03:16.598Z,7.78
2023-04-25T18:05:47.677Z,7.69
2023-04-25T18:08:18.768Z,7.62
2023-04-25T18:10:51.471Z,7.55
2023-04-25T18:13:22.858Z,7.50
2023-04-25T18:15:56.799Z,7.46
2023-04-25T18:18:33.501Z,7.40
2023-04-25T18:21:07.863Z,7.33
2023-04-25T18:23:39.132Z,7.24
2023-04-25T18:26:10.353Z,7.20
2023-04-25T18:28:41.387Z,7.14
2023-04-25T18:31:11.728Z,7.09
2023-04-25T18:33:42.860Z,7.04
2023-04-25T18:36:12.427Z,7.00
2023-04-25T18:38:43.292Z,6.95
2023-04-25T18:41:41.417Z,6.93
2023-04-25T18:44:06.982Z,6.90
2023-04-25T18:46:38.876Z,6.88
2023-04-25T18:49:10.418Z,6.86
2023-04-25T18:51:41.787Z,6.83
2023-04-25T18:54:12.642Z,6.80
2023-04-25T18:56:42.521Z,6.76
2023-04-25T18:59:15.711Z,6.71
2023-04-25T19:01:46.863Z,6.67
2023-04-25T19:04:18.545Z,6.64
2023-04-25T19:06:51.477Z,6.58
2023-04-25T19:09:23.405Z,6.51
2023-04-25T19:11:54.548Z,6.46
2023-04-25T19:14:24.170Z,6.42
2023-04-25T19:16:55.288Z,6.38
2023-04-25T19:19:27.436Z,6.38
2023-04-25T19:21:58.978Z,6.37
2023-04-25T19:24:30.733Z,6.36
2023-04-25T19:27:02.988Z,6.36
2023-04-25T19:29:33.350Z,6.35
2023-04-25T19:32:05.325Z,6.33
2023-04-25T19:34:37.098Z,6.33
2023-04-25T19:37:08.041Z,6.33
2023-04-25T19:39:37.607Z,6.34
2023-04-25T19:42:08.955Z,6.34
2023-04-25T19:44:40.270Z,6.32
2023-04-25T19:47:11.370Z,6.34
2023-04-25T19:49:42.726Z,6.36
2023-04-25T19:52:15.176Z,6.38
2023-04-25T19:54:47.175Z,6.40
2023-04-25T19:57:18.467Z,6.42
2023-04-25T19:59:50.138Z,6.44
2023-04-25T20:02:21.523Z,6.47
2023-04-25T20:04:53.162Z,6.49
2023-04-25T20:07:25.048Z,6.51
2023-04-25T20:09:56.515Z,6.52
2023-04-25T20:12:27.556Z,6.51
2023-04-25T20:14:58.841Z,6.49
2023-04-25T20:17:30.735Z,6.48
2023-04-25T20:20:01.872Z,6.46
2023-04-25T20:22:36.196Z,6.41
2023-04-25T20:25:09.885Z,6.38
2023-04-25T20:27:41.026Z,6.36
2023-04-25T20:30:12.026Z,6.32
2023-04-25T20:32:43.459Z,6.24
2023-04-25T20:35:15.123Z,6.17
2023-04-25T20:37:46.835Z,6.09
2023-04-25T20:40:18.378Z,6.00
2023-04-25T20:42:49.724Z,5.93
2023-04-25T20:45:21.284Z,5.87
2023-04-25T20:47:52.415Z,5.83
2023-04-25T20:50:23.598Z,5.79
2023-04-25T20:52:54.636Z,5.74
2023-04-25T20:55:26.367Z,5.69
2023-04-25T20:57:57.736Z,5.64
2023-04-25T21:00:29.421Z,5.61
2023-04-25T21:03:03.024Z,5.55
2023-04-25T21:05:34.219Z,5.51
2023-04-25T21:08:05.980Z,5.46
2023-04-25T21:10:37.653Z,5.42
2023-04-25T21:13:08.852Z,5.32
2023-04-25T21:15:38.419Z,5.22
2023-04-25T21:18:09.510Z,5.10
2023-04-25T21:20:42.357Z,4.99
2023-04-25T21:23:13.652Z,4.85
2023-04-25T21:25:44.526Z,4.71
2023-04-25T21:28:14.313Z,4.58
2023-04-25T21:30:47.533Z,4.46
2023-04-25T21:33:18.899Z,4.37
2023-04-25T21:35:48.761Z,4.27
2023-04-25T21:38:19.865Z,4.17
2023-04-25T21:40:51.091Z,4.09
2023-04-25T21:43:20.651Z,4.00
2023-04-25T21:46:19.083Z,3.90
2023-04-25T21:48:44.393Z,3.77
2023-04-25T21:51:16.859Z,3.68
2023-04-25T21:53:48.254Z,3.56
2023-04-25T21:56:19.350Z,3.47
2023-04-25T21:58:50.743Z,3.40
2023-04-25T22:01:22.263Z,3.34
2023-04-25T22:03:53.808Z,3.27
2023-04-25T22:06:24.862Z,3.20
2023-04-25T22:08:56.176Z,3.11
2023-04-25T22:11:28.678Z,2.99
2023-04-25T22:14:00.149Z,2.92
2023-04-25T22:16:30.038Z,2.84
2023-04-25T22:19:01.804Z,2.74
2023-04-25T22:21:33.145Z,2.67
2023-04-25T22:24:05.254Z,2.62
2023-04-25T22:26:36.305Z,2.57
2023-04-25T22:29:06.989Z,2.48
2023-04-25T22:31:38.458Z,2.41
2023-04-25T22:34:09.781Z,2.33
2023-04-25T22:36:40.836Z,2.27
2023-04-25T22:39:15.312Z,2.21
2023-04-25T22:41:46.777Z,2.11
2023-04-25T22:44:18.029Z,2.02
2023-04-25T22:46:49.273Z,1.93
2023-04-25T22:49:19.095Z,1.86
2023-04-25T22:51:54.958Z,1.78
2023-04-25T22:54:26.084Z,1.73
2023-04-25T22:56:58.155Z,1.71
2023-04-25T22:59:29.670Z,1.65
2023-04-25T23:02:00.745Z,1.60
2023-04-25T23:04:32.232Z,1.57
2023-04-25T23:07:03.754Z,1.52
2023-04-25T23:09:34.815Z,1.51
2023-04-25T23:12:06.337Z,1.47
2023-04-25T23:14:37.458Z,1.43
2023-04-25T23:17:09.428Z,1.38
2023-04-25T23:19:40.897Z,1.31
2023-04-25T23:22:10.645Z,1.22
2023-04-25T23:24:41.874Z,1.10
2023-04-25T23:27:11.759Z,1.01
2023-04-25T23:29:42.989Z,0.86
2023-04-25T23:32:14.086Z,0.77
2023-04-25T23:34:45.278Z,0.74
2023-04-25T23:37:16.178Z,0.73
2023-04-25T23:39:51.966Z,0.72
2023-04-25T23:42:23.053Z,0.71
2023-04-25T23:44:54.045Z,0.67
2023-04-25T23:47:25.470Z,0.68
2023-04-25T23:49:57.301Z,0.64
2023-04-25T23:52:29.070Z,0.62
2023-04-25T23:55:00.359Z,0.58
2023-04-25T23:57:31.407Z,0.55
